sensor_id;sensor_type;location;lat;lon;timestamp;pressure;altitude;pressure_sealevel;temperature;humidity
78909;BME280;68298;37.368;127.108;2023-03-31T00:00:17;100938.38;;;18.21;29.61
78909;BME280;68298;37.368;127.108;2023-03-31T00:02:48;100943.09;;;18.16;29.67
78909;BME280;68298;37.368;127.108;2023-03-31T00:05:21;100939.56;;;18.30;29.50
78909;BME280;68298;37.368;127.108;2023-03-31T00:07:54;100944.25;;;18.25;28.85
78909;BME280;68298;37.368;127.108;2023-03-31T00:10:31;100942.19;;;18.30;28.49
78909;BME280;68298;37.368;127.108;2023-03-31T00:13:03;100946.53;;;18.16;29.05
78909;BME280;68298;37.368;127.108;2023-03-31T00:15:33;100947.28;;;18.18;28.95
78909;BME280;68298;37.368;127.108;2023-03-31T00:18:04;100943.72;;;18.19;29.06
78909;BME280;68298;37.368;127.108;2023-03-31T00:20:36;100943.94;;;18.16;29.58
78909;BME280;68298;37.368;127.108;2023-03-31T00:23:06;100947.09;;;18.22;29.07
78909;BME280;68298;37.368;127.108;2023-03-31T00:25:39;100936.50;;;18.23;30.05
78909;BME280;68298;37.368;127.108;2023-03-31T00:28:10;100945.84;;;18.27;30.69
78909;BME280;68298;37.368;127.108;2023-03-31T00:30:42;100948.25;;;18.44;31.30
78909;BME280;68298;37.368;127.108;2023-03-31T00:33:13;100949.00;;;18.74;31.34
78909;BME280;68298;37.368;127.108;2023-03-31T00:35:44;100950.91;;;18.97;31.77
78909;BME280;68298;37.368;127.108;2023-03-31T00:38:15;100947.66;;;18.81;32.17
78909;BME280;68298;37.368;127.108;2023-03-31T00:40:45;100941.72;;;18.64;33.01
78909;BME280;68298;37.368;127.108;2023-03-31T00:43:36;100943.47;;;18.78;32.96
78909;BME280;68298;37.368;127.108;2023-03-31T00:46:20;100948.00;;;18.89;32.67
78909;BME280;68298;37.368;127.108;2023-03-31T00:48:57;100946.72;;;18.94;32.90
78909;BME280;68298;37.368;127.108;2023-03-31T00:51:31;100935.28;;;18.95;32.86
78909;BME280;68298;37.368;127.108;2023-03-31T00:54:05;100943.06;;;19.10;33.11
78909;BME280;68298;37.368;127.108;2023-03-31T00:56:40;100943.19;;;19.08;33.58
78909;BME280;68298;37.368;127.108;2023-03-31T00:59:14;100941.28;;;18.98;33.97
78909;BME280;68298;37.368;127.108;2023-03-31T01:01:47;100942.97;;;19.11;33.77
78909;BME280;68298;37.368;127.108;2023-03-31T01:04:19;100943.81;;;19.25;33.43
78909;BME280;68298;37.368;127.108;2023-03-31T01:10:07;100939.00;;;19.18;33.50
78909;BME280;68298;37.368;127.108;2023-03-31T01:12:41;100940.47;;;19.22;33.78
78909;BME280;68298;37.368;127.108;2023-03-31T01:15:17;100939.84;;;19.32;33.86
78909;BME280;68298;37.368;127.108;2023-03-31T01:17:49;100938.38;;;19.28;33.95
78909;BME280;68298;37.368;127.108;2023-03-31T01:20:45;100933.22;;;19.39;34.38
78909;BME280;68298;37.368;127.108;2023-03-31T01:26:24;100926.16;;;19.39;34.33
78909;BME280;68298;37.368;127.108;2023-03-31T01:30:34;100913.53;;;19.57;34.22
78909;BME280;68298;37.368;127.108;2023-03-31T01:36:47;100923.94;;;19.59;34.87
78909;BME280;68298;37.368;127.108;2023-03-31T01:43:16;100915.88;;;19.62;34.62
78909;BME280;68298;37.368;127.108;2023-03-31T01:46:01;100915.22;;;19.58;34.84
78909;BME280;68298;37.368;127.108;2023-03-31T01:52:20;100906.41;;;19.46;35.13
78909;BME280;68298;37.368;127.108;2023-03-31T01:58:41;100916.09;;;19.33;36.50
78909;BME280;68298;37.368;127.108;2023-03-31T02:07:09;100917.34;;;19.15;36.77
78909;BME280;68298;37.368;127.108;2023-03-31T02:09:52;100906.13;;;19.13;36.84
78909;BME280;68298;37.368;127.108;2023-03-31T02:12:28;100906.31;;;19.10;36.38
78909;BME280;68298;37.368;127.108;2023-03-31T02:15:03;100905.88;;;19.16;36.00
78909;BME280;68298;37.368;127.108;2023-03-31T02:17:37;100893.81;;;19.13;35.83
78909;BME280;68298;37.368;127.108;2023-03-31T02:20:15;100893.38;;;19.19;35.62
78909;BME280;68298;37.368;127.108;2023-03-31T02:22:51;100887.31;;;19.32;34.54
78909;BME280;68298;37.368;127.108;2023-03-31T02:25:37;100883.41;;;19.25;34.58
78909;BME280;68298;37.368;127.108;2023-03-31T02:28:25;100892.16;;;19.12;34.87
78909;BME280;68298;37.368;127.108;2023-03-31T02:33:40;100887.91;;;18.97;34.61
78909;BME280;68298;37.368;127.108;2023-03-31T02:36:11;100879.94;;;18.99;34.14
78909;BME280;68298;37.368;127.108;2023-03-31T02:39:05;100867.97;;;18.94;34.30
78909;BME280;68298;37.368;127.108;2023-03-31T02:41:38;100871.84;;;18.89;34.16
78909;BME280;68298;37.368;127.108;2023-03-31T02:44:11;100865.47;;;18.93;34.18
78909;BME280;68298;37.368;127.108;2023-03-31T02:46:43;100858.50;;;18.92;33.37
78909;BME280;68298;37.368;127.108;2023-03-31T02:49:15;100856.84;;;18.91;33.51
78909;BME280;68298;37.368;127.108;2023-03-31T02:52:10;100848.44;;;18.86;33.40
78909;BME280;68298;37.368;127.108;2023-03-31T03:06:03;100822.50;;;18.81;32.76
78909;BME280;68298;37.368;127.108;2023-03-31T03:11:35;100815.56;;;18.80;32.83
78909;BME280;68298;37.368;127.108;2023-03-31T03:14:39;100812.00;;;18.81;32.60
78909;BME280;68298;37.368;127.108;2023-03-31T03:17:28;100808.53;;;18.81;32.47
78909;BME280;68298;37.368;127.108;2023-03-31T03:20:04;100806.53;;;18.84;32.67
78909;BME280;68298;37.368;127.108;2023-03-31T03:22:39;100804.00;;;18.83;32.35
78909;BME280;68298;37.368;127.108;2023-03-31T03:25:12;100799.50;;;18.85;32.45
78909;BME280;68298;37.368;127.108;2023-03-31T03:27:43;100797.06;;;18.82;32.56
78909;BME280;68298;37.368;127.108;2023-03-31T03:30:15;100789.97;;;18.84;32.03
78909;BME280;68298;37.368;127.108;2023-03-31T03:32:45;100790.47;;;18.89;32.39
78909;BME280;68298;37.368;127.108;2023-03-31T03:35:19;100789.66;;;18.88;32.08
78909;BME280;68298;37.368;127.108;2023-03-31T03:37:55;100786.25;;;18.86;31.98
78909;BME280;68298;37.368;127.108;2023-03-31T03:40:27;100780.38;;;18.83;32.21
78909;BME280;68298;37.368;127.108;2023-03-31T03:42:58;100774.09;;;18.85;32.17
78909;BME280;68298;37.368;127.108;2023-03-31T03:45:29;100768.66;;;18.88;31.80
78909;BME280;68298;37.368;127.108;2023-03-31T03:48:00;100773.47;;;18.82;31.95
78909;BME280;68298;37.368;127.108;2023-03-31T03:50:34;100768.00;;;18.85;32.19
78909;BME280;68298;37.368;127.108;2023-03-31T03:53:04;100769.38;;;18.90;31.69
78909;BME280;68298;37.368;127.108;2023-03-31T03:55:35;100759.81;;;19.02;31.38
78909;BME280;68298;37.368;127.108;2023-03-31T03:58:07;100757.25;;;19.13;31.52
78909;BME280;68298;37.368;127.108;2023-03-31T04:00:39;100742.66;;;19.22;31.25
78909;BME280;68298;37.368;127.108;2023-03-31T04:03:12;100744.00;;;19.28;31.22
78909;BME280;68298;37.368;127.108;2023-03-31T04:05:47;100733.47;;;19.28;31.49
78909;BME280;68298;37.368;127.108;2023-03-31T04:08:26;100737.25;;;19.36;31.39
78909;BME280;68298;37.368;127.108;2023-03-31T04:11:15;100731.66;;;19.41;31.80
78909;BME280;68298;37.368;127.108;2023-03-31T04:13:53;100722.16;;;19.51;31.52
78909;BME280;68298;37.368;127.108;2023-03-31T04:16:31;100720.88;;;19.57;31.34
78909;BME280;68298;37.368;127.108;2023-03-31T04:19:12;100710.78;;;19.63;31.15
78909;BME280;68298;37.368;127.108;2023-03-31T04:21:54;100713.53;;;19.62;30.90
78909;BME280;68298;37.368;127.108;2023-03-31T04:24:38;100701.59;;;19.69;31.20
78909;BME280;68298;37.368;127.108;2023-03-31T04:27:14;100699.09;;;19.67;30.70
78909;BME280;68298;37.368;127.108;2023-03-31T04:29:50;100693.97;;;19.77;30.85
78909;BME280;68298;37.368;127.108;2023-03-31T04:32:30;100697.22;;;19.81;30.82
78909;BME280;68298;37.368;127.108;2023-03-31T04:35:09;100682.41;;;19.80;30.33
78909;BME280;68298;37.368;127.108;2023-03-31T04:37:51;100684.56;;;19.86;30.56
78909;BME280;68298;37.368;127.108;2023-03-31T04:40:31;100687.91;;;19.88;31.46
78909;BME280;68298;37.368;127.108;2023-03-31T04:43:10;100675.38;;;19.91;30.81
78909;BME280;68298;37.368;127.108;2023-03-31T04:45:48;100674.34;;;20.05;30.96
78909;BME280;68298;37.368;127.108;2023-03-31T04:48:25;100672.69;;;20.15;31.48
78909;BME280;68298;37.368;127.108;2023-03-31T04:51:08;100666.88;;;20.23;32.07
78909;BME280;68298;37.368;127.108;2023-03-31T04:53:49;100662.31;;;20.25;32.72
78909;BME280;68298;37.368;127.108;2023-03-31T04:56:25;100661.97;;;20.30;32.63
78909;BME280;68298;37.368;127.108;2023-03-31T04:59:01;100658.72;;;20.26;33.01
78909;BME280;68298;37.368;127.108;2023-03-31T05:01:38;100649.88;;;20.27;33.90
78909;BME280;68298;37.368;127.108;2023-03-31T05:04:17;100644.97;;;20.34;33.86
78909;BME280;68298;37.368;127.108;2023-03-31T05:06:58;100644.16;;;20.33;35.92
78909;BME280;68298;37.368;127.108;2023-03-31T05:09:42;100635.69;;;20.63;32.10
78909;BME280;68298;37.368;127.108;2023-03-31T05:12:13;100627.19;;;20.48;31.09
78909;BME280;68298;37.368;127.108;2023-03-31T05:14:50;100628.72;;;20.40;30.25
78909;BME280;68298;37.368;127.108;2023-03-31T05:17:24;100619.16;;;20.28;30.50
78909;BME280;68298;37.368;127.108;2023-03-31T05:19:58;100614.47;;;20.31;29.56
78909;BME280;68298;37.368;127.108;2023-03-31T05:22:33;100618.66;;;20.34;29.47
78909;BME280;68298;37.368;127.108;2023-03-31T05:25:10;100611.63;;;20.34;29.10
78909;BME280;68298;37.368;127.108;2023-03-31T05:27:55;100602.53;;;20.27;29.12
78909;BME280;68298;37.368;127.108;2023-03-31T05:30:27;100599.41;;;20.33;28.98
78909;BME280;68298;37.368;127.108;2023-03-31T05:33:06;100598.31;;;20.36;28.48
78909;BME280;68298;37.368;127.108;2023-03-31T05:35:44;100595.13;;;20.32;29.42
78909;BME280;68298;37.368;127.108;2023-03-31T05:38:19;100599.28;;;20.35;28.58
78909;BME280;68298;37.368;127.108;2023-03-31T05:41:00;100593.94;;;20.36;28.71
78909;BME280;68298;37.368;127.108;2023-03-31T05:43:37;100585.91;;;20.38;28.95
78909;BME280;68298;37.368;127.108;2023-03-31T05:46:13;100585.66;;;20.41;28.51
78909;BME280;68298;37.368;127.108;2023-03-31T05:48:47;100576.69;;;20.43;28.00
78909;BME280;68298;37.368;127.108;2023-03-31T05:51:27;100578.50;;;20.43;28.26
78909;BME280;68298;37.368;127.108;2023-03-31T05:54:09;100579.69;;;20.39;28.20
78909;BME280;68298;37.368;127.108;2023-03-31T05:56:43;100573.44;;;20.40;28.36
78909;BME280;68298;37.368;127.108;2023-03-31T05:59:24;100568.56;;;20.46;27.89
78909;BME280;68298;37.368;127.108;2023-03-31T06:02:06;100570.13;;;20.38;28.53
78909;BME280;68298;37.368;127.108;2023-03-31T06:05:36;100548.72;;;20.20;30.24
78909;BME280;68298;37.368;127.108;2023-03-31T06:08:23;100561.25;;;20.16;30.01
78909;BME280;68298;37.368;127.108;2023-03-31T06:10:55;100556.13;;;20.15;30.29
78909;BME280;68298;37.368;127.108;2023-03-31T06:13:34;100555.53;;;20.11;30.22
78909;BME280;68298;37.368;127.108;2023-03-31T06:16:19;100554.59;;;20.12;30.45
78909;BME280;68298;37.368;127.108;2023-03-31T06:18:53;100561.75;;;20.10;31.16
78909;BME280;68298;37.368;127.108;2023-03-31T06:21:25;100547.53;;;20.13;30.95
78909;BME280;68298;37.368;127.108;2023-03-31T06:24:00;100551.97;;;20.12;30.02
78909;BME280;68298;37.368;127.108;2023-03-31T06:26:33;100548.25;;;20.04;30.38
78909;BME280;68298;37.368;127.108;2023-03-31T06:29:08;100546.47;;;20.04;30.75
78909;BME280;68298;37.368;127.108;2023-03-31T06:31:44;100539.63;;;20.02;30.80
78909;BME280;68298;37.368;127.108;2023-03-31T06:34:18;100539.75;;;20.00;30.77
78909;BME280;68298;37.368;127.108;2023-03-31T06:36:49;100543.09;;;20.02;30.66
78909;BME280;68298;37.368;127.108;2023-03-31T06:39:21;100536.16;;;20.01;30.65
78909;BME280;68298;37.368;127.108;2023-03-31T06:41:59;100535.09;;;20.04;30.46
78909;BME280;68298;37.368;127.108;2023-03-31T06:44:38;100526.59;;;20.00;30.60
78909;BME280;68298;37.368;127.108;2023-03-31T06:47:10;100522.31;;;19.99;29.93
78909;BME280;68298;37.368;127.108;2023-03-31T06:49:47;100526.59;;;20.00;30.10
78909;BME280;68298;37.368;127.108;2023-03-31T06:52:19;100523.28;;;19.98;30.40
78909;BME280;68298;37.368;127.108;2023-03-31T06:54:54;100524.09;;;19.98;30.38
78909;BME280;68298;37.368;127.108;2023-03-31T06:57:28;100514.66;;;19.96;30.70
78909;BME280;68298;37.368;127.108;2023-03-31T07:00:05;100508.56;;;19.95;30.06
78909;BME280;68298;37.368;127.108;2023-03-31T07:02:42;100504.13;;;19.96;30.02
78909;BME280;68298;37.368;127.108;2023-03-31T07:05:16;100497.91;;;19.97;30.42
78909;BME280;68298;37.368;127.108;2023-03-31T07:07:49;100496.25;;;19.96;29.78
78909;BME280;68298;37.368;127.108;2023-03-31T07:10:25;100501.50;;;19.96;30.36
78909;BME280;68298;37.368;127.108;2023-03-31T07:13:00;100498.03;;;19.95;30.46
78909;BME280;68298;37.368;127.108;2023-03-31T07:15:35;100504.88;;;19.98;30.72
78909;BME280;68298;37.368;127.108;2023-03-31T07:18:08;100502.25;;;19.98;30.29
78909;BME280;68298;37.368;127.108;2023-03-31T07:20:43;100506.63;;;19.97;30.05
78909;BME280;68298;37.368;127.108;2023-03-31T07:23:20;100494.91;;;20.02;30.05
78909;BME280;68298;37.368;127.108;2023-03-31T07:25:53;100490.63;;;20.01;30.19
78909;BME280;68298;37.368;127.108;2023-03-31T07:28:25;100501.00;;;20.02;30.18
78909;BME280;68298;37.368;127.108;2023-03-31T07:30:56;100491.22;;;20.04;30.19
78909;BME280;68298;37.368;127.108;2023-03-31T07:33:29;100497.09;;;20.08;30.09
78909;BME280;68298;37.368;127.108;2023-03-31T07:36:04;100502.34;;;20.08;29.63
78909;BME280;68298;37.368;127.108;2023-03-31T07:38:44;100496.59;;;20.14;29.34
78909;BME280;68298;37.368;127.108;2023-03-31T07:41:21;100493.97;;;20.14;30.20
78909;BME280;68298;37.368;127.108;2023-03-31T07:43:52;100491.22;;;20.15;29.49
78909;BME280;68298;37.368;127.108;2023-03-31T07:46:26;100496.34;;;20.17;29.15
78909;BME280;68298;37.368;127.108;2023-03-31T07:48:58;100492.88;;;20.16;29.71
78909;BME280;68298;37.368;127.108;2023-03-31T07:51:31;100496.25;;;20.18;29.83
78909;BME280;68298;37.368;127.108;2023-03-31T07:54:04;100491.94;;;20.17;29.16
78909;BME280;68298;37.368;127.108;2023-03-31T07:56:37;100493.97;;;20.14;29.52
78909;BME280;68298;37.368;127.108;2023-03-31T07:59:11;100489.78;;;20.11;29.74
78909;BME280;68298;37.368;127.108;2023-03-31T08:01:43;100491.84;;;20.08;29.79
78909;BME280;68298;37.368;127.108;2023-03-31T08:04:16;100486.09;;;20.03;29.45
78909;BME280;68298;37.368;127.108;2023-03-31T08:06:48;100488.00;;;20.01;29.39
78909;BME280;68298;37.368;127.108;2023-03-31T08:09:21;100489.78;;;20.00;29.54
78909;BME280;68298;37.368;127.108;2023-03-31T08:11:56;100486.47;;;19.98;29.88
78909;BME280;68298;37.368;127.108;2023-03-31T08:14:28;100471.75;;;19.95;29.98
78909;BME280;68298;37.368;127.108;2023-03-31T08:17:09;100485.03;;;19.94;29.59
78909;BME280;68298;37.368;127.108;2023-03-31T08:19:42;100482.50;;;19.92;29.51
78909;BME280;68298;37.368;127.108;2023-03-31T08:22:15;100477.50;;;19.89;29.83
78909;BME280;68298;37.368;127.108;2023-03-31T08:24:47;100488.00;;;19.89;29.96
78909;BME280;68298;37.368;127.108;2023-03-31T08:27:18;100482.84;;;19.88;29.70
78909;BME280;68298;37.368;127.108;2023-03-31T08:29:49;100485.59;;;19.86;30.32
78909;BME280;68298;37.368;127.108;2023-03-31T08:32:23;100491.00;;;19.85;29.98
78909;BME280;68298;37.368;127.108;2023-03-31T08:34:57;100484.06;;;19.84;29.97
78909;BME280;68298;37.368;127.108;2023-03-31T08:37:29;100491.09;;;19.83;29.61
78909;BME280;68298;37.368;127.108;2023-03-31T08:40:02;100496.47;;;19.82;29.98
78909;BME280;68298;37.368;127.108;2023-03-31T08:42:54;100490.53;;;19.80;30.01
78909;BME280;68298;37.368;127.108;2023-03-31T08:45:33;100495.88;;;19.78;30.13
78909;BME280;68298;37.368;127.108;2023-03-31T08:51:11;100494.34;;;19.76;29.66
78909;BME280;68298;37.368;127.108;2023-03-31T08:53:49;100501.47;;;19.73;30.00
78909;BME280;68298;37.368;127.108;2023-03-31T08:56:22;100499.81;;;19.72;29.53
78909;BME280;68298;37.368;127.108;2023-03-31T08:58:55;100510.47;;;19.71;30.09
78909;BME280;68298;37.368;127.108;2023-03-31T09:01:54;100504.47;;;19.69;29.84
78909;BME280;68298;37.368;127.108;2023-03-31T09:10:39;100512.81;;;19.63;30.08
78909;BME280;68298;37.368;127.108;2023-03-31T09:18:36;100524.50;;;19.59;30.19
78909;BME280;68298;37.368;127.108;2023-03-31T09:23:54;100533.34;;;19.58;30.00
78909;BME280;68298;37.368;127.108;2023-03-31T09:26:50;100528.19;;;19.56;29.79
78909;BME280;68298;37.368;127.108;2023-03-31T09:32:25;100533.69;;;19.53;30.03
78909;BME280;68298;37.368;127.108;2023-03-31T09:35:22;100535.59;;;19.51;30.29
78909;BME280;68298;37.368;127.108;2023-03-31T09:37:54;100539.19;;;19.50;30.44
78909;BME280;68298;37.368;127.108;2023-03-31T09:40:27;100531.31;;;19.50;29.85
78909;BME280;68298;37.368;127.108;2023-03-31T09:43:07;100541.06;;;19.48;30.18
78909;BME280;68298;37.368;127.108;2023-03-31T09:45:40;100541.28;;;19.45;30.25
78909;BME280;68298;37.368;127.108;2023-03-31T09:48:31;100535.94;;;19.46;30.22
78909;BME280;68298;37.368;127.108;2023-03-31T09:51:07;100537.75;;;19.46;30.35
78909;BME280;68298;37.368;127.108;2023-03-31T09:53:50;100541.28;;;19.45;30.21
78909;BME280;68298;37.368;127.108;2023-03-31T09:56:55;100541.41;;;19.43;29.83
78909;BME280;68298;37.368;127.108;2023-03-31T09:59:33;100544.03;;;19.43;29.70
78909;BME280;68298;37.368;127.108;2023-03-31T10:02:37;100551.31;;;19.40;29.76
78909;BME280;68298;37.368;127.108;2023-03-31T10:05:16;100547.97;;;19.38;30.16
78909;BME280;68298;37.368;127.108;2023-03-31T10:07:48;100551.66;;;19.35;29.81
78909;BME280;68298;37.368;127.108;2023-03-31T10:10:31;100556.06;;;19.35;29.92
78909;BME280;68298;37.368;127.108;2023-03-31T10:13:02;100559.66;;;19.34;30.12
78909;BME280;68298;37.368;127.108;2023-03-31T10:15:37;100564.09;;;19.33;29.37
78909;BME280;68298;37.368;127.108;2023-03-31T10:18:17;100560.75;;;19.31;29.55
78909;BME280;68298;37.368;127.108;2023-03-31T10:20:51;100553.91;;;19.29;29.90
78909;BME280;68298;37.368;127.108;2023-03-31T10:23:29;100561.78;;;19.29;29.65
78909;BME280;68298;37.368;127.108;2023-03-31T10:26:02;100553.19;;;19.27;29.50
78909;BME280;68298;37.368;127.108;2023-03-31T10:28:34;100563.94;;;19.23;29.81
78909;BME280;68298;37.368;127.108;2023-03-31T10:31:05;100563.22;;;19.21;30.11
78909;BME280;68298;37.368;127.108;2023-03-31T10:33:43;100568.56;;;19.20;29.62
78909;BME280;68298;37.368;127.108;2023-03-31T10:36:26;100569.50;;;19.19;29.63
78909;BME280;68298;37.368;127.108;2023-03-31T10:38:58;100579.31;;;19.17;29.69
78909;BME280;68298;37.368;127.108;2023-03-31T10:41:30;100589.91;;;19.15;29.62
78909;BME280;68298;37.368;127.108;2023-03-31T10:44:03;100584.78;;;19.14;29.89
78909;BME280;68298;37.368;127.108;2023-03-31T10:46:46;100584.16;;;19.10;29.94
78909;BME280;68298;37.368;127.108;2023-03-31T10:51:58;100589.66;;;19.07;29.88
78909;BME280;68298;37.368;127.108;2023-03-31T10:54:32;100584.50;;;19.06;29.67
78909;BME280;68298;37.368;127.108;2023-03-31T10:57:04;100581.84;;;19.06;29.79
78909;BME280;68298;37.368;127.108;2023-03-31T10:59:58;100587.22;;;19.04;30.17
78909;BME280;68298;37.368;127.108;2023-03-31T11:17:16;100609.03;;;18.93;29.80
78909;BME280;68298;37.368;127.108;2023-03-31T11:25:26;100614.38;;;18.92;30.04
78909;BME280;68298;37.368;127.108;2023-03-31T11:30:45;100626.16;;;18.86;30.17
78909;BME280;68298;37.368;127.108;2023-03-31T11:36:35;100617.63;;;18.83;29.97
78909;BME280;68298;37.368;127.108;2023-03-31T11:42:20;100630.16;;;18.79;30.12
78909;BME280;68298;37.368;127.108;2023-03-31T11:45:02;100633.75;;;18.78;30.34
78909;BME280;68298;37.368;127.108;2023-03-31T11:47:35;100633.00;;;18.76;30.11
78909;BME280;68298;37.368;127.108;2023-03-31T11:50:13;100636.69;;;18.74;30.41
78909;BME280;68298;37.368;127.108;2023-03-31T11:53:28;100637.53;;;18.74;30.41
78909;BME280;68298;37.368;127.108;2023-03-31T11:55:57;100640.47;;;18.69;30.10
78909;BME280;68298;37.368;127.108;2023-03-31T11:58:35;100634.69;;;18.64;30.32
78909;BME280;68298;37.368;127.108;2023-03-31T12:06:41;100647.06;;;18.62;30.46
78909;BME280;68298;37.368;127.108;2023-03-31T12:09:50;100650.75;;;18.60;30.76
78909;BME280;68298;37.368;127.108;2023-03-31T12:12:27;100653.56;;;18.57;29.96
78909;BME280;68298;37.368;127.108;2023-03-31T12:18:12;100652.53;;;18.59;30.21
78909;BME280;68298;37.368;127.108;2023-03-31T12:20:51;100658.19;;;18.53;30.42
78909;BME280;68298;37.368;127.108;2023-03-31T12:23:30;100654.53;;;18.56;30.37
78909;BME280;68298;37.368;127.108;2023-03-31T12:28:42;100660.09;;;18.51;30.42
78909;BME280;68298;37.368;127.108;2023-03-31T12:31:22;100653.25;;;18.49;30.22
78909;BME280;68298;37.368;127.108;2023-03-31T12:34:09;100654.97;;;18.50;30.54
78909;BME280;68298;37.368;127.108;2023-03-31T12:36:51;100662.91;;;18.48;30.11
78909;BME280;68298;37.368;127.108;2023-03-31T12:39:39;100661.38;;;18.45;30.86
78909;BME280;68298;37.368;127.108;2023-03-31T12:45:27;100662.19;;;18.46;30.60
78909;BME280;68298;37.368;127.108;2023-03-31T12:48:09;100659.06;;;18.41;30.26
78909;BME280;68298;37.368;127.108;2023-03-31T12:59:42;100670.06;;;18.33;30.49
78909;BME280;68298;37.368;127.108;2023-03-31T13:04:46;100672.25;;;18.39;29.91
78909;BME280;68298;37.368;127.108;2023-03-31T13:13:05;100675.84;;;18.38;30.33
78909;BME280;68298;37.368;127.108;2023-03-31T13:15:55;100676.06;;;18.35;29.89
78909;BME280;68298;37.368;127.108;2023-03-31T13:18:28;100669.22;;;18.33;30.66
78909;BME280;68298;37.368;127.108;2023-03-31T13:21:04;100682.03;;;18.37;30.47
78909;BME280;68298;37.368;127.108;2023-03-31T13:23:44;100680.56;;;18.33;29.81
78909;BME280;68298;37.368;127.108;2023-03-31T13:34:41;100674.59;;;18.31;30.58
78909;BME280;68298;37.368;127.108;2023-03-31T13:45:53;100680.34;;;18.24;30.45
78909;BME280;68298;37.368;127.108;2023-03-31T13:51:53;100686.22;;;18.27;30.06
78909;BME280;68298;37.368;127.108;2023-03-31T13:54:57;100685.47;;;18.25;30.11
78909;BME280;68298;37.368;127.108;2023-03-31T14:03:26;100686.53;;;18.23;31.10
78909;BME280;68298;37.368;127.108;2023-03-31T14:08:42;100686.53;;;18.23;30.40
78909;BME280;68298;37.368;127.108;2023-03-31T14:11:36;100683.78;;;18.24;30.82
78909;BME280;68298;37.368;127.108;2023-03-31T14:14:15;100685.81;;;18.20;30.19
78909;BME280;68298;37.368;127.108;2023-03-31T14:17:01;100682.13;;;18.23;30.47
78909;BME280;68298;37.368;127.108;2023-03-31T14:19:48;100689.34;;;18.19;30.38
78909;BME280;68298;37.368;127.108;2023-03-31T14:22:30;100683.19;;;18.20;30.65
78909;BME280;68298;37.368;127.108;2023-03-31T14:25:42;100689.34;;;18.19;30.13
78909;BME280;68298;37.368;127.108;2023-03-31T14:28:45;100692.94;;;18.18;30.81
78909;BME280;68298;37.368;127.108;2023-03-31T14:31:43;100688.63;;;18.17;30.67
78909;BME280;68298;37.368;127.108;2023-03-31T14:34:28;100690.41;;;18.17;30.24
78909;BME280;68298;37.368;127.108;2023-03-31T14:37:14;100694.91;;;18.15;30.68
78909;BME280;68298;37.368;127.108;2023-03-31T14:39:54;100689.66;;;18.15;30.66
78909;BME280;68298;37.368;127.108;2023-03-31T14:42:38;100690.59;;;18.14;30.64
78909;BME280;68298;37.368;127.108;2023-03-31T14:45:24;100691.56;;;18.13;31.25
78909;BME280;68298;37.368;127.108;2023-03-31T14:48:12;100686.50;;;18.10;30.88
78909;BME280;68298;37.368;127.108;2023-03-31T14:50:48;100686.50;;;18.10;30.41
78909;BME280;68298;37.368;127.108;2023-03-31T14:53:24;100683.06;;;18.09;30.28
78909;BME280;68298;37.368;127.108;2023-03-31T14:56:23;100690.09;;;18.09;30.62
78909;BME280;68298;37.368;127.108;2023-03-31T14:58:57;100697.94;;;18.09;30.66
78909;BME280;68298;37.368;127.108;2023-03-31T15:01:32;100685.91;;;18.06;30.93
78909;BME280;68298;37.368;127.108;2023-03-31T15:04:14;100689.34;;;18.07;30.63
78909;BME280;68298;37.368;127.108;2023-03-31T15:06:52;100684.13;;;18.07;31.31
78909;BME280;68298;37.368;127.108;2023-03-31T15:09:27;100686.09;;;18.03;30.91
78909;BME280;68298;37.368;127.108;2023-03-31T15:12:02;100687.88;;;18.03;30.97
78909;BME280;68298;37.368;127.108;2023-03-31T15:14:39;100686.28;;;18.00;31.29
78909;BME280;68298;37.368;127.108;2023-03-31T15:17:29;100691.44;;;18.02;31.25
78909;BME280;68298;37.368;127.108;2023-03-31T15:22:58;100696.25;;;17.95;30.74
78909;BME280;68298;37.368;127.108;2023-03-31T15:25:38;100696.25;;;17.95;30.44
78909;BME280;68298;37.368;127.108;2023-03-31T15:28:19;100690.91;;;17.97;30.90
78909;BME280;68298;37.368;127.108;2023-03-31T15:30:56;100692.78;;;17.94;31.53
78909;BME280;68298;37.368;127.108;2023-03-31T15:33:39;100696.34;;;17.93;30.95
78909;BME280;68298;37.368;127.108;2023-03-31T15:36:16;100699.69;;;17.95;30.61
78909;BME280;68298;37.368;127.108;2023-03-31T15:38:58;100705.06;;;17.94;31.09
78909;BME280;68298;37.368;127.108;2023-03-31T15:41:34;100707.69;;;17.94;31.26
78909;BME280;68298;37.368;127.108;2023-03-31T15:47:18;100692.91;;;17.93;30.69
78909;BME280;68298;37.368;127.108;2023-03-31T15:50:11;100689.44;;;17.92;30.48
78909;BME280;68298;37.368;127.108;2023-03-31T15:52:55;100695.72;;;17.90;31.56
78909;BME280;68298;37.368;127.108;2023-03-31T15:55:30;100700.94;;;17.90;31.44
78909;BME280;68298;37.368;127.108;2023-03-31T15:58:02;100699.28;;;17.89;30.57
78909;BME280;68298;37.368;127.108;2023-03-31T16:03:41;100686.47;;;17.84;31.35
78909;BME280;68298;37.368;127.108;2023-03-31T16:09:09;100693.69;;;17.81;30.56
78909;BME280;68298;37.368;127.108;2023-03-31T16:11:53;100698.09;;;17.80;30.69
78909;BME280;68298;37.368;127.108;2023-03-31T16:14:34;100694.63;;;17.80;31.25